createdAt,value
2022-12-27T00:00:27.627Z,3.66
2022-12-27T00:02:54.352Z,3.61
2022-12-27T00:05:21.105Z,3.79
2022-12-27T00:07:48.037Z,3.77
2022-12-27T00:10:15.756Z,3.59
2022-12-27T00:12:42.540Z,3.23
2022-12-27T00:15:09.719Z,3.38
2022-12-27T00:17:36.513Z,3.47
2022-12-27T00:20:10.655Z,3.42
2022-12-27T00:22:38.263Z,3.45
2022-12-27T00:25:05.430Z,2.93
2022-12-27T00:27:32.050Z,3.11
2022-12-27T00:29:58.711Z,3.03
2022-12-27T00:32:25.792Z,3.20
2022-12-27T00:34:52.442Z,2.97
2022-12-27T00:37:19.128Z,2.67
2022-12-27T00:39:45.803Z,2.70
2022-12-27T00:42:12.510Z,2.58
2022-12-27T00:44:39.441Z,2.28
2022-12-27T00:47:06.181Z,2.25
2022-12-27T00:49:32.841Z,2.50
2022-12-27T00:51:59.496Z,2.63
2022-12-27T00:54:26.171Z,2.52
2022-12-27T00:56:52.807Z,2.52
2022-12-27T00:59:19.676Z,2.38
2022-12-27T01:01:46.366Z,2.24
2022-12-27T01:04:14.319Z,2.41
2022-12-27T01:06:41.075Z,2.45
2022-12-27T01:09:07.824Z,2.28
2022-12-27T01:11:34.687Z,1.87
2022-12-27T01:14:03.473Z,2.20
2022-12-27T01:16:31.489Z,2.36
2022-12-27T01:18:59.207Z,2.40
2022-12-27T01:21:27.276Z,2.22
2022-12-27T01:23:58.233Z,2.19
2022-12-27T01:26:25.032Z,2.26
2022-12-27T01:28:53.093Z,1.83
2022-12-27T01:31:23.225Z,2.12
2022-12-27T01:33:54.414Z,1.91
2022-12-27T01:36:23.505Z,2.14
2022-12-27T01:38:50.533Z,2.07
2022-12-27T01:41:50.489Z,2.02
2022-12-27T01:44:35.922Z,1.85
2022-12-27T01:47:04.580Z,1.80
2022-12-27T01:49:31.951Z,1.51
2022-12-27T01:51:58.870Z,1.37
2022-12-27T01:54:25.733Z,1.24
2022-12-27T01:56:52.520Z,1.29
2022-12-27T01:59:19.194Z,0.96
2022-12-27T02:01:47.925Z,1.08
2022-12-27T02:04:24.598Z,1.12
2022-12-27T02:06:52.151Z,1.05
2022-12-27T02:09:29.003Z,1.02
2022-12-27T02:11:57.524Z,1.02
2022-12-27T02:14:27.917Z,0.92
2022-12-27T02:17:00.322Z,0.76
2022-12-27T02:19:42.334Z,0.86
2022-12-27T02:23:00.996Z,0.67
2022-12-27T02:25:38.064Z,0.62
2022-12-27T02:28:23.746Z,0.79
2022-12-27T02:30:58.670Z,0.40
2022-12-27T02:33:31.189Z,0.56
2022-12-27T02:36:03.507Z,0.75
2022-12-27T02:38:40.628Z,0.42
2022-12-27T02:41:29.551Z,0.57
2022-12-27T02:44:16.940Z,0.34
2022-12-27T02:47:03.262Z,0.54
2022-12-27T02:49:54.673Z,0.36
2022-12-27T02:52:51.901Z,0.52
2022-12-27T02:55:32.035Z,0.65
2022-12-27T02:58:13.772Z,0.63
2022-12-27T03:01:36.661Z,0.27
2022-12-27T03:04:31.343Z,0.54
2022-12-27T03:07:27.318Z,0.36
2022-12-27T03:10:18.668Z,0.34
2022-12-27T03:13:28.718Z,0.21
2022-12-27T03:16:08.150Z,0.11
2022-12-27T03:18:54.862Z,0.24
2022-12-27T03:21:48.896Z,0.17
2022-12-27T03:24:39.190Z,-0.58
2022-12-27T03:27:17.887Z,-0.24
2022-12-27T03:30:10.112Z,-0.60
2022-12-27T03:33:07.449Z,-0.08
2022-12-27T03:36:12.461Z,0.01
2022-12-27T03:38:47.121Z,-0.05
2022-12-27T03:41:43.314Z,0.01
2022-12-27T03:44:31.762Z,-0.04
2022-12-27T03:47:09.771Z,0.16
2022-12-27T03:49:48.239Z,0.17
2022-12-27T03:52:21.272Z,0.15
2022-12-27T03:54:50.916Z,0.13
2022-12-27T03:57:21.616Z,0.08
2022-12-27T03:59:48.412Z,0.01
2022-12-27T04:02:15.741Z,-0.03
2022-12-27T04:04:42.517Z,-0.01
2022-12-27T04:07:10.813Z,-0.08
2022-12-27T04:09:56.096Z,-0.35
2022-12-27T04:12:41.099Z,-0.25
2022-12-27T04:15:26.558Z,-0.28
2022-12-27T04:18:11.852Z,-0.34
2022-12-27T04:20:57.150Z,-0.21
2022-12-27T04:23:42.871Z,-0.48
2022-12-27T04:26:30.754Z,-0.50
2022-12-27T04:29:15.955Z,-0.35
2022-12-27T04:32:01.336Z,-0.61
2022-12-27T04:34:46.288Z,-0.28
2022-12-27T04:37:15.943Z,-0.46
2022-12-27T04:40:03.242Z,-0.28
2022-12-27T04:42:48.461Z,-0.49
2022-12-27T04:45:33.638Z,-0.36
2022-12-27T04:48:18.829Z,-0.67
2022-12-27T04:51:04.255Z,-0.95
2022-12-27T04:53:49.535Z,-1.20
2022-12-27T04:56:16.146Z,-1.02
2022-12-27T04:59:02.771Z,-1.27
2022-12-27T05:01:48.071Z,-1.05
2022-12-27T05:04:15.678Z,-0.96
2022-12-27T05:06:42.256Z,-1.04
2022-12-27T05:09:27.289Z,-0.95
2022-12-27T05:12:12.144Z,-1.19
2022-12-27T05:14:38.795Z,-0.96
2022-12-27T05:17:05.386Z,-1.14
2022-12-27T05:19:32.053Z,-1.07
2022-12-27T05:22:17.376Z,-0.98
2022-12-27T05:25:02.511Z,-0.96
2022-12-27T05:27:29.574Z,-0.93
2022-12-27T05:29:56.194Z,-1.20
2022-12-27T05:32:22.837Z,-0.80
2022-12-27T05:34:49.494Z,-0.70
2022-12-27T05:37:16.102Z,-0.45
2022-12-27T05:39:42.784Z,-0.70
2022-12-27T05:42:09.370Z,-0.90
2022-12-27T05:44:36.016Z,-1.20
2022-12-27T05:47:02.619Z,-1.40
2022-12-27T05:49:29.262Z,-1.48
2022-12-27T05:51:55.840Z,-1.46
2022-12-27T05:54:22.457Z,-1.16
2022-12-27T05:56:49.057Z,-1.35
2022-12-27T05:59:15.857Z,-1.20
2022-12-27T06:01:42.759Z,-1.15
2022-12-27T06:04:10.399Z,-0.95
2022-12-27T06:06:37.044Z,-1.17
2022-12-27T06:09:03.742Z,-1.42
2022-12-27T06:11:30.347Z,-1.41
2022-12-27T06:13:57.130Z,-1.22
2022-12-27T06:16:23.990Z,-0.68
2022-12-27T06:18:50.629Z,-0.85
2022-12-27T06:21:20.013Z,-0.53
2022-12-27T06:23:47.768Z,-0.58
2022-12-27T06:26:26.119Z,-0.49
2022-12-27T06:28:55.353Z,-0.81
2022-12-27T06:31:22.900Z,-0.92
2022-12-27T06:33:51.123Z,-1.20
2022-12-27T06:36:21.026Z,-1.24
2022-12-27T06:38:48.278Z,-1.22
2022-12-27T06:41:17.557Z,-1.34
2022-12-27T06:43:45.263Z,-1.32
2022-12-27T06:46:17.606Z,-1.29
2022-12-27T06:48:47.706Z,-1.31
2022-12-27T06:51:16.103Z,-1.18
2022-12-27T06:53:45.768Z,-1.06
2022-12-27T06:56:16.941Z,-1.05
2022-12-27T06:58:44.238Z,-1.11
2022-12-27T07:01:21.333Z,-0.91
2022-12-27T07:03:53.441Z,-0.82
2022-12-27T07:06:21.491Z,-0.89
2022-12-27T07:08:49.692Z,-1.05
2022-12-27T07:11:17.517Z,-0.90
2022-12-27T07:13:47.061Z,-1.21
2022-12-27T07:16:16.510Z,-1.14
2022-12-27T07:18:43.556Z,-1.22
2022-12-27T07:21:12.885Z,-0.92
2022-12-27T07:23:40.095Z,-0.98
2022-12-27T07:26:09.489Z,-1.17
2022-12-27T07:28:36.205Z,-1.55
2022-12-27T07:31:10.618Z,-1.62
2022-12-27T07:33:38.572Z,-1.71
2022-12-27T07:36:08.876Z,-1.36
2022-12-27T07:38:35.498Z,-1.38
2022-12-27T07:41:03.135Z,-1.17
2022-12-27T07:43:31.226Z,-1.09
2022-12-27T07:46:27.331Z,-0.92
2022-12-27T07:48:55.566Z,-1.32
2022-12-27T07:51:23.045Z,-0.76
2022-12-27T07:53:50.762Z,-0.56
2022-12-27T07:56:25.718Z,-0.62
2022-12-27T07:58:53.945Z,-0.75
2022-12-27T08:01:22.063Z,-0.45
2022-12-27T08:03:49.164Z,-0.31
2022-12-27T08:06:22.452Z,-0.18
2022-12-27T08:08:49.915Z,-0.24
2022-12-27T08:11:16.534Z,-0.42
2022-12-27T08:13:43.198Z,-0.13
2022-12-27T08:16:17.003Z,-0.09
2022-12-27T08:18:43.613Z,-0.02
2022-12-27T08:21:10.228Z,0.04
2022-12-27T08:23:36.905Z,0.31
2022-12-27T08:26:04.031Z,0.37
2022-12-27T08:28:31.697Z,0.10
2022-12-27T08:30:59.766Z,0.26
2022-12-27T08:33:27.901Z,0.41
2022-12-27T08:35:57.137Z,0.26
2022-12-27T08:38:24.023Z,0.32
2022-12-27T08:40:51.127Z,0.21
2022-12-27T08:43:17.795Z,0.15
2022-12-27T08:45:44.682Z,0.20
2022-12-27T08:48:11.751Z,0.50
2022-12-27T08:50:38.446Z,0.56
2022-12-27T08:53:06.129Z,0.64
2022-12-27T08:55:33.755Z,0.62
2022-12-27T08:58:02.872Z,0.49
2022-12-27T09:00:30.609Z,0.84
2022-12-27T09:02:57.611Z,0.87
2022-12-27T09:05:26.272Z,1.05
2022-12-27T09:07:53.002Z,1.05
2022-12-27T09:10:20.559Z,0.99
2022-12-27T09:12:47.388Z,1.13
2022-12-27T09:15:14.279Z,1.02
2022-12-27T09:17:41.751Z,1.08
2022-12-27T09:20:09.148Z,1.15
2022-12-27T09:22:36.606Z,1.23
2022-12-27T09:25:03.395Z,1.17
2022-12-27T09:27:30.023Z,1.29
2022-12-27T09:29:56.630Z,1.25
2022-12-27T09:32:27.414Z,1.17
2022-12-27T09:34:54.614Z,1.33
2022-12-27T09:37:21.236Z,1.15
2022-12-27T09:39:47.855Z,1.33
2022-12-27T09:42:56.192Z,1.51
2022-12-27T09:45:41.422Z,1.46
2022-12-27T09:48:16.053Z,1.47
2022-12-27T09:50:52.925Z,1.65
2022-12-27T09:53:33.186Z,1.32
2022-12-27T09:56:00.160Z,1.68
2022-12-27T09:59:15.182Z,1.64
2022-12-27T10:01:42.456Z,1.76
2022-12-27T10:04:13.535Z,1.76
2022-12-27T10:06:48.858Z,1.54
2022-12-27T10:09:34.225Z,1.75
2022-12-27T10:12:16.799Z,1.63
2022-12-27T10:14:44.081Z,1.72
2022-12-27T10:17:19.816Z,1.72
2022-12-27T10:20:02.013Z,1.54
2022-12-27T10:22:34.877Z,1.54
2022-12-27T10:25:06.067Z,1.30
2022-12-27T10:27:32.753Z,1.25
2022-12-27T10:30:00.320Z,1.45
2022-12-27T10:32:27.306Z,1.46
2022-12-27T10:35:02.567Z,1.87
2022-12-27T10:37:29.632Z,1.90
2022-12-27T10:40:07.497Z,2.16
2022-12-27T10:42:41.671Z,1.98
2022-12-27T10:45:34.651Z,2.27
2022-12-27T10:48:18.153Z,2.32
2022-12-27T10:50:55.467Z,2.30
2022-12-27T10:53:32.525Z,2.30
2022-12-27T10:56:14.486Z,2.40
2022-12-27T10:58:56.471Z,2.44
2022-12-27T11:01:27.909Z,2.22
2022-12-27T11:04:22.430Z,2.38
2022-12-27T11:07:18.459Z,2.26
2022-12-27T11:09:50.862Z,2.24
2022-12-27T11:12:21.162Z,2.45
2022-12-27T11:14:58.004Z,2.47
2022-12-27T11:17:41.103Z,2.55
2022-12-27T11:20:37.522Z,2.63
2022-12-27T11:23:10.156Z,2.61
2022-12-27T11:26:00.751Z,2.47
2022-12-27T11:28:38.208Z,2.71
2022-12-27T11:31:14.500Z,2.41
2022-12-27T11:33:50.474Z,2.57
2022-12-27T11:36:37.356Z,2.63
2022-12-27T11:39:04.804Z,2.45
2022-12-27T11:41:37.469Z,2.66
2022-12-27T11:44:19.718Z,2.47
2022-12-27T11:46:59.474Z,2.35
2022-12-27T11:49:37.159Z,2.58
2022-12-27T11:52:42.787Z,2.60
2022-12-27T11:55:28.224Z,2.60
2022-12-27T11:58:37.071Z,2.47
2022-12-27T12:01:19.057Z,2.70
2022-12-27T12:03:57.957Z,2.88
2022-12-27T12:06:34.435Z,2.97
2022-12-27T12:09:13.207Z,3.05
2022-12-27T12:11:51.375Z,3.11
2022-12-27T12:14:27.258Z,3.13
2022-12-27T12:17:31.097Z,3.22
2022-12-27T12:20:07.872Z,3.02
2022-12-27T12:22:43.726Z,3.08
2022-12-27T12:25:35.069Z,3.04
2022-12-27T12:28:57.731Z,3.07
2022-12-27T12:31:53.480Z,2.87
2022-12-27T12:35:17.712Z,3.09
2022-12-27T12:38:04.187Z,3.11
2022-12-27T12:40:38.552Z,2.22
2022-12-27T12:43:29.294Z,3.07
2022-12-27T12:46:14.191Z,3.05
2022-12-27T12:49:16.098Z,3.24
2022-12-27T12:51:45.513Z,3.06
2022-12-27T12:55:13.030Z,2.92
2022-12-27T12:57:55.619Z,3.06
2022-12-27T13:00:25.326Z,3.32
2022-12-27T13:03:10.835Z,3.29
2022-12-27T13:05:47.895Z,2.83
2022-12-27T13:08:40.997Z,3.28
2022-12-27T13:11:30.148Z,3.60
2022-12-27T13:14:11.992Z,3.77
2022-12-27T13:16:52.115Z,3.95
2022-12-27T13:19:49.651Z,3.89
2022-12-27T13:22:37.993Z,3.98
2022-12-27T13:25:41.726Z,4.03
2022-12-27T13:28:34.259Z,4.43
2022-12-27T13:31:28.952Z,5.05
2022-12-27T13:34:26.723Z,5.39
2022-12-27T13:37:24.055Z,5.41
2022-12-27T13:40:29.032Z,6.07
2022-12-27T13:43:25.154Z,5.41
2022-12-27T13:46:13.821Z,5.28
2022-12-27T13:49:02.257Z,5.00
2022-12-27T13:51:47.535Z,4.81
2022-12-27T13:54:32.555Z,4.77
2022-12-27T13:57:09.929Z,4.44
2022-12-27T13:59:54.847Z,4.22
2022-12-27T14:02:42.638Z,4.12
2022-12-27T14:05:28.393Z,4.46
2022-12-27T14:08:04.927Z,4.55
2022-12-27T14:11:01.534Z,4.58
2022-12-27T14:13:42.464Z,4.71
2022-12-27T14:16:48.164Z,5.06
2022-12-27T14:19:44.845Z,5.12
2022-12-27T14:22:11.471Z,5.34
2022-12-27T14:25:05.591Z,5.26
2022-12-27T14:27:50.730Z,5.05
2022-12-27T14:30:55.026Z,4.88
2022-12-27T14:33:44.683Z,4.84
2022-12-27T14:36:58.064Z,4.59
2022-12-27T14:39:46.624Z,4.47
2022-12-27T14:42:54.069Z,4.16
2022-12-27T14:45:57.585Z,3.92
2022-12-27T14:48:56.502Z,3.80
2022-12-27T14:52:00.057Z,3.65
2022-12-27T14:54:54.336Z,3.49
2022-12-27T14:57:48.080Z,3.43
2022-12-27T15:00:24.258Z,3.13
2022-12-27T15:03:22.098Z,3.10
2022-12-27T15:05:55.371Z,3.23
2022-12-27T15:08:43.397Z,3.16
2022-12-27T15:11:16.130Z,3.19
2022-12-27T15:14:20.264Z,3.10
2022-12-27T15:16:59.189Z,3.12
2022-12-27T15:19:44.615Z,3.04
2022-12-27T15:22:17.508Z,2.65
2022-12-27T15:25:23.362Z,2.43
2022-12-27T15:28:36.013Z,2.32
2022-12-27T15:31:08.803Z,2.53
2022-12-27T15:34:14.729Z,2.59
2022-12-27T15:36:47.746Z,2.36
2022-12-27T15:39:32.671Z,2.45
2022-12-27T15:42:02.270Z,2.35
2022-12-27T15:44:43.926Z,2.03
2022-12-27T15:47:32.607Z,2.03
2022-12-27T15:50:17.526Z,2.10
2022-12-27T15:53:11.800Z,1.99
2022-12-27T15:56:00.600Z,1.99
2022-12-27T15:58:30.980Z,1.84
2022-12-27T16:01:22.072Z,1.68
2022-12-27T16:03:53.443Z,1.45
2022-12-27T16:06:35.704Z,1.15
2022-12-27T16:09:19.155Z,1.26
2022-12-27T16:12:04.419Z,1.17
2022-12-27T16:14:33.999Z,1.04
2022-12-27T16:17:30.021Z,1.25
2022-12-27T16:20:14.204Z,1.21
2022-12-27T16:22:52.738Z,1.25
2022-12-27T16:25:30.404Z,1.14
2022-12-27T16:28:05.979Z,1.09
2022-12-27T16:30:44.896Z,0.92
2022-12-27T16:33:27.669Z,0.96
2022-12-27T16:36:17.587Z,0.65
2022-12-27T16:39:09.227Z,1.09
2022-12-27T16:41:47.725Z,1.10
2022-12-27T16:44:20.304Z,0.91
2022-12-27T16:47:00.354Z,0.69
2022-12-27T16:50:05.549Z,0.50
2022-12-27T16:52:57.000Z,0.38
2022-12-27T16:55:58.570Z,0.32
2022-12-27T16:58:31.143Z,0.35
2022-12-27T17:01:00.895Z,0.32
2022-12-27T17:03:36.861Z,-0.07
2022-12-27T17:06:32.343Z,-0.21
2022-12-27T17:09:09.001Z,-0.34
2022-12-27T17:12:05.697Z,-0.14
2022-12-27T17:14:36.241Z,-0.12
2022-12-27T17:17:09.063Z,0.09
2022-12-27T17:19:48.865Z,0.33
2022-12-27T17:22:17.093Z,0.18
2022-12-27T17:24:48.641Z,0.11
2022-12-27T17:27:45.898Z,-0.31
2022-12-27T17:30:21.355Z,-0.81
2022-12-27T17:32:56.406Z,-0.83
2022-12-27T17:35:29.422Z,-0.56
2022-12-27T17:38:02.023Z,-0.47
2022-12-27T17:41:03.467Z,-1.18
2022-12-27T17:44:18.285Z,-0.41
2022-12-27T17:47:15.051Z,-0.39
2022-12-27T17:49:42.619Z,-0.76
2022-12-27T17:52:34.936Z,-0.68
2022-12-27T17:55:42.032Z,-0.74
2022-12-27T17:58:11.662Z,-0.57
2022-12-27T18:01:01.190Z,-0.65
2022-12-27T18:03:44.112Z,-0.99
2022-12-27T18:06:11.547Z,-0.70
2022-12-27T18:08:39.794Z,-1.02
2022-12-27T18:11:06.690Z,-1.26
2022-12-27T18:13:44.901Z,-1.01
2022-12-27T18:16:23.076Z,-0.77
2022-12-27T18:18:53.806Z,-0.66
2022-12-27T18:21:29.040Z,-0.69
2022-12-27T18:23:57.128Z,-0.69
2022-12-27T18:26:40.995Z,-0.91
2022-12-27T18:29:11.323Z,-0.86
2022-12-27T18:31:50.344Z,-0.71
2022-12-27T18:34:17.063Z,-0.83
2022-12-27T18:37:00.963Z,-1.05
2022-12-27T18:39:36.635Z,-0.97
2022-12-27T18:42:17.470Z,-1.08
2022-12-27T18:44:50.656Z,-0.97
2022-12-27T18:47:23.578Z,-0.94
2022-12-27T18:49:55.312Z,-1.12
2022-12-27T18:52:26.678Z,-1.07
2022-12-27T18:54:53.760Z,-0.98
2022-12-27T18:57:37.195Z,-0.95
2022-12-27T19:00:21.803Z,-0.89
2022-12-27T19:02:50.622Z,-0.84
2022-12-27T19:05:20.409Z,-0.96
2022-12-27T19:07:56.703Z,-0.90
2022-12-27T19:10:26.178Z,-0.92
2022-12-27T19:12:54.547Z,-1.02
2022-12-27T19:15:27.989Z,-1.12
2022-12-27T19:18:01.041Z,-0.72
2022-12-27T19:20:34.691Z,-0.90
2022-12-27T19:23:24.030Z,-0.48
2022-12-27T19:26:02.970Z,-0.61
2022-12-27T19:28:31.180Z,-0.61
2022-12-27T19:31:06.355Z,-0.92
2022-12-27T19:33:35.473Z,-1.04
2022-12-27T19:36:07.031Z,-0.82
2022-12-27T19:38:34.543Z,-0.76
2022-12-27T19:41:03.830Z,-0.55
2022-12-27T19:43:40.241Z,-0.36
2022-12-27T19:46:07.218Z,-0.33
2022-12-27T19:48:33.930Z,-0.31
2022-12-27T19:51:00.669Z,-0.58
2022-12-27T19:53:39.669Z,-0.48
2022-12-27T19:56:10.639Z,-0.15
2022-12-27T19:58:37.850Z,-0.46
2022-12-27T20:01:07.780Z,-0.32
2022-12-27T20:03:34.648Z,-0.42
2022-12-27T20:06:13.694Z,-0.52
2022-12-27T20:08:48.241Z,-0.87
2022-12-27T20:11:21.250Z,-1.35
2022-12-27T20:13:48.669Z,-1.61
2022-12-27T20:16:17.427Z,-1.85
2022-12-27T20:18:47.170Z,-1.77
2022-12-27T20:21:16.548Z,-1.71
2022-12-27T20:23:43.824Z,-1.66
2022-12-27T20:26:11.866Z,-1.54
2022-12-27T20:28:38.800Z,-1.33
2022-12-27T20:31:11.148Z,-1.31
2022-12-27T20:33:37.855Z,-1.41
2022-12-27T20:36:04.934Z,-1.74
2022-12-27T20:38:31.694Z,-1.83
2022-12-27T20:41:06.387Z,-2.20
2022-12-27T20:43:33.157Z,-2.13
2022-12-27T20:46:07.871Z,-1.89
2022-12-27T20:48:38.240Z,-1.67
2022-12-27T20:51:28.316Z,-1.58
2022-12-27T20:53:59.474Z,-1.53
2022-12-27T20:56:26.513Z,-1.48
2022-12-27T20:58:55.191Z,-1.49
2022-12-27T21:01:24.501Z,-1.60
2022-12-27T21:03:51.593Z,-1.59
2022-12-27T21:06:21.140Z,-1.81
2022-12-27T21:08:56.153Z,-1.90
2022-12-27T21:11:29.165Z,-1.88
2022-12-27T21:13:56.042Z,-1.77
2022-12-27T21:16:25.762Z,-1.74
2022-12-27T21:18:52.973Z,-1.95
2022-12-27T21:21:22.639Z,-1.62
2022-12-27T21:23:52.090Z,-1.88
2022-12-27T21:26:23.722Z,-1.49
2022-12-27T21:28:50.475Z,-1.79
2022-12-27T21:31:18.770Z,-1.64
2022-12-27T21:33:49.347Z,-1.79
2022-12-27T21:36:19.240Z,-1.76
2022-12-27T21:38:46.974Z,-1.92
2022-12-27T21:41:20.798Z,-2.30
2022-12-27T21:43:49.043Z,-2.51
2022-12-27T21:46:16.983Z,-2.20
2022-12-27T21:48:43.823Z,-2.19
2022-12-27T21:51:13.468Z,-2.03
2022-12-27T21:53:40.687Z,-2.01
2022-12-27T21:56:07.446Z,-2.21
2022-12-27T21:58:36.872Z,-2.20
2022-12-27T22:01:16.026Z,-2.22
2022-12-27T22:03:45.000Z,-1.88
2022-12-27T22:06:16.431Z,-1.84
2022-12-27T22:08:45.405Z,-2.12
2022-12-27T22:11:13.461Z,-1.98
2022-12-27T22:13:40.965Z,-2.26
2022-12-27T22:16:11.924Z,-1.98
2022-12-27T22:18:41.494Z,-2.13
2022-12-27T22:21:09.783Z,-2.13
2022-12-27T22:23:41.921Z,-2.07
2022-12-27T22:26:33.189Z,-2.04
2022-12-27T22:28:59.808Z,-2.29
2022-12-27T22:31:30.707Z,-2.19
2022-12-27T22:33:57.394Z,-2.28
2022-12-27T22:36:26.014Z,-2.20
2022-12-27T22:38:55.077Z,-2.45
2022-12-27T22:41:27.018Z,-2.32
2022-12-27T22:44:16.509Z,-2.31
2022-12-27T22:47:25.209Z,-2.40
2022-12-27T22:49:30.309Z,-2.30
2022-12-27T22:51:57.033Z,-2.52
2022-12-27T22:55:05.070Z,-2.17
2022-12-27T22:57:10.482Z,-2.16
2022-12-27T22:59:37.053Z,-2.19
2022-12-27T23:02:04.029Z,-2.11
2022-12-27T23:04:30.804Z,-2.45
2022-12-27T23:07:01.628Z,-2.54
2022-12-27T23:09:29.481Z,-2.21
2022-12-27T23:11:56.459Z,-2.25
2022-12-27T23:14:23.184Z,-2.30
2022-12-27T23:16:49.936Z,-2.43
2022-12-27T23:19:19.915Z,-2.41
2022-12-27T23:21:47.882Z,-2.40
2022-12-27T23:24:14.744Z,-2.47
2022-12-27T23:26:41.982Z,-2.33
2022-12-27T23:29:10.633Z,-2.23
2022-12-27T23:31:54.295Z,-2.61
2022-12-27T23:34:27.625Z,-2.52
2022-12-27T23:36:55.253Z,-2.52
2022-12-27T23:39:21.909Z,-2.66
2022-12-27T23:41:48.522Z,-2.61
2022-12-27T23:44:15.146Z,-2.70
2022-12-27T23:46:41.950Z,-3.20
2022-12-27T23:49:08.689Z,-2.53
2022-12-27T23:51:35.336Z,-2.23
2022-12-27T23:54:01.946Z,-2.38
2022-12-27T23:56:30.844Z,-2.48
2022-12-27T23:58:59.495Z,-2.46
